createdAt,value
2024-04-18T02:03:35.156Z,14.90
2024-04-18T02:06:03.317Z,13.50
2024-04-18T02:08:31.062Z,17.50
2024-04-18T02:10:58.914Z,10.80
2024-04-18T02:13:26.837Z,12.70
2024-04-18T02:15:54.694Z,11.90
2024-04-18T02:18:22.814Z,13.10
2024-04-18T02:20:51.048Z,13.70
2024-04-18T02:23:18.965Z,12.20
2024-04-18T02:25:46.718Z,10.90
2024-04-18T02:28:14.529Z,11.10
2024-04-18T02:30:42.511Z,10.80
2024-04-18T02:33:13.096Z,9.00
2024-04-18T02:35:40.937Z,10.10
2024-04-18T02:38:09.227Z,10.40
2024-04-18T02:40:37.336Z,9.20
2024-04-18T02:43:05.186Z,9.00
2024-04-18T02:45:33.119Z,10.50
2024-04-18T02:48:01.219Z,8.60
2024-04-18T02:50:29.022Z,9.00
2024-04-18T02:52:56.824Z,8.90
2024-04-18T02:55:24.778Z,9.30
2024-04-18T02:57:52.640Z,9.70
2024-04-18T03:00:20.479Z,9.20
2024-04-18T03:02:48.501Z,8.50
2024-04-18T03:05:17.804Z,9.00
2024-04-18T03:07:45.619Z,10.30
2024-04-18T03:10:13.455Z,8.60
2024-04-18T03:12:41.532Z,10.10
2024-04-18T03:15:09.346Z,13.90
2024-04-18T03:17:37.227Z,9.10
2024-04-18T03:20:05.528Z,11.00
2024-04-18T03:22:35.191Z,10.70
2024-04-18T03:25:03.000Z,8.90
2024-04-18T03:27:31.534Z,9.50
2024-04-18T03:29:59.386Z,12.60
2024-04-18T03:32:27.563Z,9.40
2024-04-18T03:34:55.583Z,10.90
2024-04-18T03:37:23.383Z,9.10
2024-04-18T03:39:51.254Z,10.70
2024-04-18T03:42:19.382Z,10.60
2024-04-18T03:44:47.197Z,11.30
2024-04-18T03:47:15.171Z,10.30
2024-04-18T03:49:43.040Z,11.30
2024-04-18T03:52:10.885Z,9.40
2024-04-18T03:54:55.362Z,9.60
2024-04-18T03:57:26.644Z,11.30
2024-04-18T03:59:54.619Z,10.80
2024-04-18T04:02:22.436Z,9.60
2024-04-18T04:04:51.248Z,10.00
2024-04-18T04:07:18.992Z,11.60
2024-04-18T04:09:47.340Z,8.90
2024-04-18T04:12:15.254Z,12.50
2024-04-18T04:14:43.163Z,15.40
2024-04-18T04:17:10.946Z,12.00
2024-04-18T04:19:38.785Z,10.40
2024-04-18T04:22:07.073Z,13.40
2024-04-18T04:24:35.054Z,10.40
2024-04-18T04:27:02.982Z,9.30
2024-04-18T04:29:30.931Z,12.40
2024-04-18T04:31:58.750Z,9.10
2024-04-18T04:34:26.590Z,9.00
2024-04-18T04:36:54.335Z,11.50
2024-04-18T04:39:22.165Z,11.60
2024-04-18T04:41:49.933Z,12.70
2024-04-18T04:44:17.978Z,11.80
2024-04-18T04:46:47.196Z,12.90
2024-04-18T04:49:15.731Z,11.80
2024-04-18T04:51:43.629Z,11.50
2024-04-18T04:54:11.570Z,11.40
2024-04-18T04:56:39.492Z,12.50
2024-04-18T04:59:07.258Z,10.70
2024-04-18T05:01:35.284Z,11.90
2024-04-18T05:04:03.526Z,10.50
2024-04-18T05:06:31.606Z,12.80
2024-04-18T05:08:59.398Z,13.20
2024-04-18T05:11:27.214Z,10.90
2024-04-18T05:13:55.218Z,12.70
2024-04-18T05:16:26.321Z,11.70
2024-04-18T05:18:54.375Z,11.90
2024-04-18T05:21:22.236Z,11.40
2024-04-18T05:23:50.066Z,12.20
2024-04-18T05:26:18.047Z,11.20
2024-04-18T05:29:04.413Z,13.50
2024-04-18T05:31:32.300Z,11.20
2024-04-18T05:34:00.251Z,12.50
2024-04-18T05:36:28.270Z,14.90
2024-04-18T05:38:56.048Z,12.00
2024-04-18T05:41:23.866Z,12.40
2024-04-18T05:43:51.882Z,11.60
2024-04-18T05:46:19.790Z,13.10
2024-04-18T05:48:47.556Z,11.60
2024-04-18T05:51:15.464Z,13.80
2024-04-18T05:53:43.857Z,12.00
2024-04-18T05:56:11.761Z,11.60
2024-04-18T05:58:41.509Z,13.10
2024-04-18T06:01:09.556Z,13.60
2024-04-18T06:03:37.646Z,12.70
2024-04-18T06:06:05.835Z,13.30
2024-04-18T06:08:33.920Z,19.30
2024-04-18T06:11:01.723Z,13.10
2024-04-18T06:13:31.806Z,14.80
2024-04-18T06:16:00.143Z,14.30
2024-04-18T06:18:30.390Z,14.70
2024-04-18T06:21:01.351Z,11.50
2024-04-18T06:23:29.216Z,11.40
2024-04-18T06:25:57.753Z,12.80
2024-04-18T06:28:25.606Z,22.60
2024-04-18T06:30:53.818Z,13.00
2024-04-18T06:33:22.000Z,13.00
2024-04-18T06:35:49.976Z,16.90
2024-04-18T06:38:17.972Z,13.30
2024-04-18T06:40:46.623Z,13.40
2024-04-18T06:43:14.424Z,11.00
2024-04-18T06:45:44.282Z,11.60
2024-04-18T06:48:12.401Z,13.90
2024-04-18T06:50:41.254Z,12.20
2024-04-18T06:53:09.040Z,11.00
2024-04-18T06:55:36.929Z,12.00
2024-04-18T06:58:05.165Z,12.30
2024-04-18T07:00:34.082Z,11.40
2024-04-18T07:03:02.119Z,14.20
2024-04-18T07:05:30.217Z,10.40
2024-04-18T07:07:58.672Z,11.60
2024-04-18T07:10:26.739Z,12.00
2024-04-18T07:12:54.848Z,10.00
2024-04-18T07:15:22.880Z,7.30
2024-04-18T07:17:54.521Z,9.60
2024-04-18T07:20:22.830Z,9.70
2024-04-18T07:22:50.657Z,10.40
2024-04-18T07:25:18.554Z,18.30
2024-04-18T07:27:46.366Z,9.60
2024-04-18T07:30:16.284Z,7.70
2024-04-18T07:32:44.674Z,8.80
2024-04-18T07:35:12.743Z,9.30
2024-04-18T07:37:40.721Z,8.40
2024-04-18T07:40:19.444Z,9.00
2024-04-18T07:42:50.231Z,11.20
2024-04-18T07:45:18.574Z,10.70
2024-04-18T07:47:46.668Z,9.00
2024-04-18T07:50:15.024Z,9.00
2024-04-18T07:52:52.669Z,7.70
2024-04-18T07:55:24.812Z,7.70
2024-04-18T07:57:53.125Z,10.50
2024-04-18T08:00:22.484Z,9.30
2024-04-18T08:02:53.334Z,10.90
2024-04-18T08:05:24.129Z,8.30
2024-04-18T08:07:56.721Z,8.30
2024-04-18T08:10:33.554Z,9.10
2024-04-18T08:13:10.404Z,8.20
2024-04-18T08:18:11.820Z,7.40
2024-04-18T08:20:41.641Z,8.30
2024-04-18T08:23:09.673Z,7.80
2024-04-18T08:25:37.820Z,5.90
2024-04-18T08:28:06.820Z,6.90
2024-04-18T08:30:34.799Z,4.80
2024-04-18T08:33:02.958Z,6.60
2024-04-18T08:35:30.833Z,5.70
2024-04-18T08:37:58.688Z,4.80
2024-04-18T08:40:29.719Z,4.80
2024-04-18T08:42:57.847Z,5.60
2024-04-18T08:45:26.784Z,4.40
2024-04-18T08:47:56.942Z,2.70
2024-04-18T08:50:25.749Z,5.90
2024-04-18T08:52:56.757Z,3.80
2024-04-18T08:55:25.176Z,6.60
2024-04-18T08:58:22.941Z,4.90
2024-04-18T09:00:50.895Z,4.20
2024-04-18T09:03:19.113Z,5.00
2024-04-18T09:05:47.141Z,3.50
2024-04-18T09:08:15.218Z,2.80
2024-04-18T09:10:43.336Z,5.10
2024-04-18T09:13:11.290Z,3.00
2024-04-18T09:15:39.232Z,3.50
2024-04-18T09:18:08.807Z,3.50
2024-04-18T09:20:39.533Z,4.70
2024-04-18T09:23:07.644Z,5.10
2024-04-18T09:25:38.884Z,4.40
2024-04-18T09:28:08.019Z,5.10
2024-04-18T09:30:38.721Z,3.10
2024-04-18T09:33:07.766Z,6.20
2024-04-18T09:35:36.438Z,5.20
2024-04-18T09:38:10.243Z,4.30
2024-04-18T09:40:49.692Z,3.40
2024-04-18T09:43:30.027Z,4.30
2024-04-18T09:46:04.211Z,3.70
2024-04-18T09:48:32.477Z,4.10
2024-04-18T09:51:01.248Z,5.00
2024-04-18T09:53:31.037Z,3.20
2024-04-18T09:56:00.220Z,9.60
2024-04-18T09:58:28.942Z,5.50
2024-04-18T10:00:57.717Z,3.00
2024-04-18T10:03:25.969Z,5.30
2024-04-18T10:05:57.976Z,3.40
2024-04-18T10:08:33.908Z,2.00
2024-04-18T10:11:03.653Z,3.50
2024-04-18T10:13:32.029Z,2.50
2024-04-18T10:16:21.049Z,4.70
2024-04-18T10:18:51.581Z,4.80
2024-04-18T10:21:33.057Z,1.80
2024-04-18T10:24:06.748Z,1.90
2024-04-18T10:26:36.440Z,2.60
2024-04-18T10:29:04.211Z,4.30
2024-04-18T10:31:32.006Z,3.00
2024-04-18T10:34:00.597Z,3.20
2024-04-18T10:36:28.876Z,2.50
2024-04-18T10:38:57.120Z,2.30
2024-04-18T10:41:25.726Z,2.10
2024-04-18T10:43:55.299Z,4.10
2024-04-18T10:46:24.040Z,2.50
2024-04-18T10:48:55.915Z,3.60
2024-04-18T10:51:28.167Z,1.70
2024-04-18T10:53:56.485Z,4.10
2024-04-18T10:56:25.405Z,1.60
2024-04-18T10:58:53.210Z,2.10
2024-04-18T11:01:21.817Z,1.80
2024-04-18T11:03:52.666Z,1.60
2024-04-18T11:06:20.867Z,2.70
2024-04-18T11:08:52.950Z,2.00
2024-04-18T11:11:27.146Z,1.60
2024-04-18T11:13:58.519Z,4.10
2024-04-18T11:16:27.454Z,3.20
2024-04-18T11:18:56.294Z,2.80
2024-04-18T11:21:27.291Z,4.90
2024-04-18T11:23:58.510Z,1.90
2024-04-18T11:26:29.611Z,3.70
2024-04-18T11:28:58.378Z,1.70
2024-04-18T11:31:26.656Z,3.10
2024-04-18T11:33:56.822Z,3.40
2024-04-18T11:36:26.129Z,3.00
2024-04-18T11:39:00.583Z,3.60
2024-04-18T11:41:34.499Z,3.00
2024-04-18T11:44:02.820Z,4.90
2024-04-18T11:46:31.359Z,2.00
2024-04-18T11:48:59.385Z,1.50
2024-04-18T11:51:27.540Z,1.30
2024-04-18T11:53:55.384Z,1.40
2024-04-18T11:56:23.376Z,1.50
2024-04-18T11:58:54.068Z,1.50
2024-04-18T12:01:22.333Z,2.20
2024-04-18T12:03:50.231Z,2.20
2024-04-18T12:06:18.145Z,1.50
2024-04-18T12:08:48.653Z,2.60
2024-04-18T12:11:18.219Z,2.60
2024-04-18T12:13:47.414Z,3.60
2024-04-18T12:16:15.455Z,3.20
2024-04-18T12:18:43.429Z,2.10
2024-04-18T12:21:11.221Z,1.30
2024-04-18T12:23:44.053Z,1.20
2024-04-18T12:26:12.316Z,1.40
2024-04-18T12:28:40.438Z,1.70
2024-04-18T12:31:08.709Z,1.80
2024-04-18T12:33:36.600Z,2.10
2024-04-18T12:36:07.108Z,3.10
2024-04-18T12:38:34.929Z,1.60
2024-04-18T12:41:05.466Z,1.40
2024-04-18T12:43:34.266Z,1.70
2024-04-18T12:46:10.922Z,2.70
2024-04-18T12:48:45.826Z,1.60
2024-04-18T12:51:13.927Z,1.50
2024-04-18T12:53:41.881Z,4.90
2024-04-18T12:56:10.273Z,4.00
2024-04-18T12:58:40.815Z,2.60
2024-04-18T13:01:09.862Z,6.10
2024-04-18T13:03:37.943Z,2.10
2024-04-18T13:06:05.965Z,3.30
2024-04-18T13:08:33.847Z,2.10
2024-04-18T13:11:01.883Z,2.10
2024-04-18T13:13:29.901Z,2.60
2024-04-18T13:16:00.756Z,2.40
2024-04-18T13:18:30.279Z,1.60
2024-04-18T13:20:58.424Z,1.30
2024-04-18T13:23:26.248Z,4.90
2024-04-18T13:25:54.676Z,1.90
2024-04-18T13:28:22.649Z,2.90
2024-04-18T13:30:50.634Z,1.60
2024-04-18T13:33:18.696Z,1.80
2024-04-18T13:35:46.840Z,2.00
2024-04-18T13:38:14.861Z,2.00
2024-04-18T13:40:42.932Z,5.20
2024-04-18T13:43:10.852Z,3.40
2024-04-18T13:45:38.932Z,2.10
2024-04-18T13:48:07.535Z,2.50
2024-04-18T13:50:35.885Z,1.30
2024-04-18T13:53:03.832Z,1.60
2024-04-18T13:55:31.682Z,2.60
2024-04-18T13:58:00.044Z,1.50
2024-04-18T14:00:30.588Z,5.00
2024-04-18T14:02:58.590Z,2.10
2024-04-18T14:05:26.822Z,2.60
2024-04-18T14:07:54.811Z,2.10
2024-04-18T14:10:22.618Z,2.80
2024-04-18T14:12:50.717Z,2.40
2024-04-18T14:15:29.704Z,2.10
2024-04-18T14:18:16.662Z,1.50
2024-04-18T14:20:51.036Z,3.20
2024-04-18T14:23:19.347Z,4.90
2024-04-18T14:25:47.235Z,1.60
2024-04-18T14:28:23.633Z,3.20
2024-04-18T14:30:55.793Z,2.80
2024-04-18T14:33:23.620Z,2.90
2024-04-18T14:35:51.580Z,4.50
2024-04-18T14:38:19.536Z,2.80
2024-04-18T14:41:01.713Z,5.10
2024-04-18T14:43:37.256Z,4.40
2024-04-18T14:46:05.200Z,2.80
2024-04-18T14:48:37.283Z,3.80
2024-04-18T14:51:05.488Z,4.00
2024-04-18T14:53:33.253Z,2.50
2024-04-18T14:56:01.157Z,2.00
2024-04-18T14:58:29.067Z,3.50
2024-04-18T15:00:57.062Z,3.50
2024-04-18T15:03:25.220Z,2.70
2024-04-18T15:05:54.479Z,4.50
2024-04-18T15:08:23.260Z,4.30
2024-04-18T15:10:51.530Z,4.10
2024-04-18T15:13:19.394Z,2.30
2024-04-18T15:15:47.414Z,4.30
2024-04-18T15:18:15.757Z,4.10
2024-04-18T15:20:43.614Z,4.00
2024-04-18T15:23:12.636Z,2.80
2024-04-18T15:25:41.468Z,3.30
2024-04-18T15:28:09.421Z,4.90
2024-04-18T15:30:37.379Z,2.80
2024-04-18T15:33:05.686Z,2.90
2024-04-18T15:35:33.557Z,4.60
2024-04-18T15:38:01.472Z,6.10
2024-04-18T15:40:29.546Z,2.80
2024-04-18T15:42:57.468Z,3.90
2024-04-18T15:45:25.462Z,2.60
2024-04-18T15:47:53.659Z,3.30
2024-04-18T15:50:24.722Z,3.90
2024-04-18T15:52:53.115Z,4.80
2024-04-18T15:55:22.465Z,3.40
2024-04-18T15:57:50.807Z,2.10
2024-04-18T16:00:18.778Z,5.70
2024-04-18T16:02:49.026Z,3.10
2024-04-18T16:05:21.169Z,5.30
2024-04-18T16:07:49.011Z,3.70
2024-04-18T16:10:17.302Z,2.30
2024-04-18T16:12:45.436Z,4.30
2024-04-18T16:15:13.925Z,4.20
2024-04-18T16:17:44.742Z,2.80
2024-04-18T16:20:16.035Z,5.70
2024-04-18T16:22:44.213Z,3.40
2024-04-18T16:25:12.134Z,4.40
2024-04-18T16:27:40.040Z,3.90
2024-04-18T16:30:08.865Z,4.00
2024-04-18T16:32:36.815Z,4.90
2024-04-18T16:35:05.308Z,4.50
2024-04-18T16:37:34.584Z,7.00
2024-04-18T16:40:02.459Z,4.90
2024-04-18T16:42:31.299Z,4.10
2024-04-18T16:44:59.254Z,5.50
2024-04-18T16:47:27.467Z,4.50
2024-04-18T16:49:55.721Z,5.20
2024-04-18T16:52:23.633Z,7.00
2024-04-18T16:54:51.426Z,6.10
2024-04-18T16:57:19.279Z,7.50
2024-04-18T16:59:47.019Z,5.70
2024-04-18T17:02:14.852Z,5.20
2024-04-18T17:04:42.956Z,6.20
2024-04-18T17:07:10.933Z,5.10
2024-04-18T17:09:38.848Z,8.40
2024-04-18T17:12:07.333Z,9.10
2024-04-18T17:14:35.086Z,7.50
2024-04-18T17:17:02.963Z,7.80
2024-04-18T17:19:33.946Z,8.40
2024-04-18T17:22:02.487Z,8.00
2024-04-18T17:24:30.368Z,7.40
2024-04-18T17:26:58.173Z,13.60
2024-04-18T17:29:26.244Z,10.00
2024-04-18T17:31:54.161Z,10.30
2024-04-18T17:34:21.929Z,9.00
2024-04-18T17:36:49.799Z,8.70
2024-04-18T17:39:17.725Z,9.90
2024-04-18T17:41:45.639Z,10.00
2024-04-18T17:44:14.255Z,9.10
2024-04-18T17:46:42.416Z,9.30
2024-04-18T17:49:10.381Z,8.10
2024-04-18T17:51:38.626Z,9.40
2024-04-18T17:54:07.398Z,12.30
2024-04-18T17:56:35.098Z,10.00
2024-04-18T17:59:02.863Z,10.00
2024-04-18T18:01:32.358Z,11.40
2024-04-18T18:04:00.375Z,14.60
2024-04-18T18:06:28.395Z,13.70
2024-04-18T18:08:56.285Z,10.80
2024-04-18T18:11:24.411Z,11.40
2024-04-18T18:13:53.822Z,11.60
2024-04-18T18:16:21.986Z,10.70
2024-04-18T18:18:49.996Z,12.00
2024-04-18T18:21:18.071Z,16.20
2024-04-18T18:23:47.103Z,14.60
2024-04-18T18:26:15.024Z,17.70
2024-04-18T18:28:43.032Z,19.50
2024-04-18T18:31:10.887Z,18.50
2024-04-18T18:33:40.179Z,16.40
2024-04-18T18:36:09.137Z,16.40
2024-04-18T18:38:38.158Z,14.60
2024-04-18T18:41:06.075Z,14.10
2024-04-18T18:43:33.836Z,16.90
2024-04-18T18:46:01.735Z,15.40
2024-04-18T18:48:29.850Z,16.40
2024-04-18T18:50:57.719Z,16.80
2024-04-18T18:53:26.033Z,17.30
2024-04-18T18:55:53.778Z,19.20
2024-04-18T18:58:21.714Z,19.80
2024-04-18T19:00:49.718Z,16.00
2024-04-18T19:03:18.449Z,18.30
2024-04-18T19:05:50.517Z,17.30
2024-04-18T19:08:18.345Z,18.60
2024-04-18T19:10:46.169Z,19.30
2024-04-18T19:13:14.138Z,19.70
2024-04-18T19:15:42.925Z,21.10
2024-04-18T19:18:11.013Z,18.80
2024-04-18T19:20:38.868Z,22.60
2024-04-18T19:23:06.680Z,22.60
2024-04-18T19:25:34.473Z,21.40
2024-04-18T19:28:02.384Z,23.50
2024-04-18T19:30:30.126Z,21.90
2024-04-18T19:32:57.993Z,21.90
2024-04-18T19:35:25.959Z,24.10
2024-04-18T19:37:55.702Z,24.50
2024-04-18T19:40:23.472Z,22.80
2024-04-18T19:42:51.238Z,25.00
2024-04-18T19:45:19.411Z,23.50
2024-04-18T19:47:47.522Z,25.50
2024-04-18T19:50:15.680Z,22.20
2024-04-18T19:52:43.598Z,19.10
2024-04-18T19:55:12.058Z,26.70
2024-04-18T19:57:40.084Z,21.90
2024-04-18T20:00:08.878Z,21.90
2024-04-18T20:02:40.690Z,25.30
2024-04-18T20:05:09.468Z,22.30
2024-04-18T20:07:37.646Z,21.40
2024-04-18T20:10:06.428Z,19.60
2024-04-18T20:12:34.255Z,23.70
2024-04-18T20:15:02.319Z,19.80
2024-04-18T20:17:30.366Z,22.50
2024-04-18T20:19:58.329Z,18.70
2024-04-18T20:22:26.114Z,20.40
2024-04-18T20:24:53.901Z,19.90
2024-04-18T20:27:25.574Z,22.50
2024-04-18T20:29:53.864Z,19.70
2024-04-18T20:32:23.262Z,22.90
2024-04-18T20:34:51.428Z,19.60
2024-04-18T20:37:19.614Z,19.70
2024-04-18T20:39:47.663Z,20.40
2024-04-18T20:42:15.998Z,19.30
2024-04-18T20:44:43.790Z,20.00
2024-04-18T20:47:12.138Z,19.00
2024-04-18T20:49:39.888Z,18.60
2024-04-18T20:52:07.625Z,22.40
2024-04-18T20:54:35.512Z,20.90
2024-04-18T20:57:03.460Z,18.90
2024-04-18T20:59:31.372Z,19.90
2024-04-18T21:02:00.665Z,18.90
2024-04-18T21:04:28.604Z,18.80
2024-04-18T21:06:56.406Z,22.40
2024-04-18T21:09:24.341Z,20.40
2024-04-18T21:11:53.471Z,18.70
2024-04-18T21:14:21.253Z,21.30
2024-04-18T21:16:49.101Z,20.30
2024-04-18T21:19:21.004Z,18.70
2024-04-18T21:21:49.949Z,24.60
2024-04-18T21:24:17.982Z,21.60
2024-04-18T21:26:45.753Z,26.80
2024-04-18T21:29:14.417Z,18.50
2024-04-18T21:31:42.536Z,23.70
2024-04-18T21:34:11.970Z,26.50
2024-04-18T21:36:40.272Z,20.60
2024-04-18T21:39:08.501Z,18.00
2024-04-18T21:41:40.633Z,19.50
2024-04-18T21:44:08.667Z,15.90
2024-04-18T21:46:36.430Z,17.70
2024-04-18T21:49:04.565Z,15.00
2024-04-18T21:51:32.560Z,15.00
2024-04-18T21:54:01.188Z,17.30
2024-04-18T21:56:29.368Z,14.00
2024-04-18T21:58:57.246Z,13.20
2024-04-18T22:01:25.166Z,16.10
2024-04-18T22:03:53.100Z,14.70
2024-04-18T22:06:20.995Z,11.70
2024-04-18T22:08:48.867Z,14.30
2024-04-18T22:11:16.652Z,14.20
2024-04-18T22:13:44.430Z,16.80
2024-04-18T22:16:12.199Z,15.00
2024-04-18T22:18:40.056Z,14.60
2024-04-18T22:21:08.240Z,16.80
2024-04-18T22:23:36.137Z,14.40
2024-04-18T22:26:04.384Z,15.10
2024-04-18T22:28:32.203Z,14.40
2024-04-18T22:31:01.416Z,17.00
2024-04-18T22:33:29.410Z,15.40
2024-04-18T22:35:57.419Z,13.80
2024-04-18T22:38:25.555Z,17.10
2024-04-18T22:40:53.724Z,16.00
2024-04-18T22:43:21.798Z,16.70
2024-04-18T22:45:52.338Z,16.90
2024-04-18T22:48:20.584Z,18.10
2024-04-18T22:50:48.665Z,17.00
2024-04-18T22:53:16.572Z,15.20
2024-04-18T22:55:44.507Z,17.90
2024-04-18T22:58:13.894Z,15.80
2024-04-18T23:00:42.003Z,15.50
2024-04-18T23:03:09.984Z,20.30
2024-04-18T23:05:38.404Z,12.60
2024-04-18T23:08:06.581Z,16.00
2024-04-18T23:10:34.856Z,14.50
2024-04-18T23:13:02.803Z,13.60
2024-04-18T23:15:31.037Z,13.40
2024-04-18T23:17:58.893Z,14.40
2024-04-18T23:20:28.213Z,16.00
2024-04-18T23:22:57.380Z,14.40
2024-04-18T23:25:25.787Z,17.60
2024-04-18T23:27:55.447Z,14.20
2024-04-18T23:30:23.202Z,14.70
2024-04-18T23:32:51.112Z,12.80
2024-04-18T23:35:19.522Z,13.60
2024-04-18T23:37:47.513Z,14.00
2024-04-18T23:40:15.586Z,14.80
2024-04-18T23:42:43.609Z,14.70
2024-04-18T23:45:12.090Z,16.10
2024-04-18T23:47:40.066Z,14.20
2024-04-18T23:50:08.293Z,17.80
2024-04-18T23:52:36.083Z,13.50
2024-04-18T23:55:04.203Z,16.10
2024-04-18T23:57:32.116Z,14.50
2024-04-18T23:59:59.930Z,14.10
